createdAt,value
2022-10-15T00:01:10.440Z,18.34
2022-10-15T00:03:39.006Z,18.34
2022-10-15T00:06:10.600Z,18.30
2022-10-15T00:08:39.605Z,18.30
2022-10-15T00:11:09.830Z,18.27
2022-10-15T00:13:38.448Z,18.23
2022-10-15T00:16:09.370Z,18.20
2022-10-15T00:18:37.899Z,18.17
2022-10-15T00:21:09.554Z,18.11
2022-10-15T00:23:38.942Z,18.09
2022-10-15T00:26:08.745Z,18.07
2022-10-15T00:28:36.966Z,17.98
2022-10-15T00:31:06.858Z,17.96
2022-10-15T00:33:35.870Z,17.98
2022-10-15T00:36:07.278Z,17.98
2022-10-15T00:38:37.322Z,17.98
2022-10-15T00:41:06.285Z,17.97
2022-10-15T00:43:43.390Z,17.99
2022-10-15T00:46:19.183Z,17.98
2022-10-15T00:48:51.132Z,17.97
2022-10-15T00:51:21.850Z,18.02
2022-10-15T00:53:52.001Z,18.03
2022-10-15T00:56:23.309Z,18.05
2022-10-15T00:58:53.439Z,18.10
2022-10-15T01:01:21.991Z,18.09
2022-10-15T01:03:50.400Z,18.08
2022-10-15T01:06:18.512Z,18.09
2022-10-15T01:08:47.536Z,18.07
2022-10-15T01:11:31.779Z,18.06
2022-10-15T01:14:21.102Z,18.05
2022-10-15T01:16:53.838Z,18.03
2022-10-15T01:19:35.114Z,18.03
2022-10-15T01:22:07.665Z,18.02
2022-10-15T01:24:54.733Z,18.04
2022-10-15T01:27:45.481Z,18.04
2022-10-15T01:30:21.173Z,18.06
2022-10-15T01:33:05.724Z,18.06
2022-10-15T01:35:43.196Z,17.99
2022-10-15T01:38:24.138Z,18.03
2022-10-15T01:40:57.517Z,18.08
2022-10-15T01:43:31.411Z,18.08
2022-10-15T01:46:25.431Z,18.05
2022-10-15T01:49:09.231Z,18.04
2022-10-15T01:51:39.865Z,18.07
2022-10-15T01:54:12.109Z,18.05
2022-10-15T01:56:41.692Z,18.06
2022-10-15T01:59:11.567Z,18.03
2022-10-15T02:04:21.945Z,18.03
2022-10-15T02:06:54.592Z,17.96
2022-10-15T02:09:31.747Z,17.96
2022-10-15T02:12:12.271Z,17.90
2022-10-15T02:14:48.974Z,17.89
2022-10-15T02:17:24.570Z,17.89
2022-10-15T02:22:36.287Z,17.90
2022-10-15T02:25:07.727Z,17.91
2022-10-15T02:27:36.970Z,17.91
2022-10-15T02:30:09.985Z,17.91
2022-10-15T02:32:41.993Z,17.94
2022-10-15T02:35:12.238Z,17.92
2022-10-15T02:37:48.869Z,17.88
2022-10-15T02:40:20.998Z,17.89
2022-10-15T02:42:50.784Z,17.89
2022-10-15T02:45:18.901Z,17.87
2022-10-15T02:47:48.609Z,17.87
2022-10-15T02:50:18.437Z,17.87
2022-10-15T02:52:46.543Z,17.84
2022-10-15T02:55:14.612Z,17.84
2022-10-15T02:57:43.061Z,17.84
2022-10-15T03:00:12.278Z,17.80
2022-10-15T03:02:41.767Z,17.82
2022-10-15T03:05:11.889Z,17.80
2022-10-15T03:07:39.993Z,17.83
2022-10-15T03:10:09.324Z,17.88
2022-10-15T03:12:37.406Z,17.83
2022-10-15T03:15:07.786Z,17.85
2022-10-15T03:17:37.012Z,17.87
2022-10-15T03:20:05.858Z,17.88
2022-10-15T03:22:38.946Z,17.87
2022-10-15T03:25:07.543Z,17.83
2022-10-15T03:27:35.669Z,17.87
2022-10-15T03:30:08.974Z,17.88
2022-10-15T03:32:37.000Z,17.87
2022-10-15T03:35:07.797Z,17.85
2022-10-15T03:37:37.998Z,17.82
2022-10-15T03:40:13.450Z,17.81
2022-10-15T03:42:43.701Z,17.85
2022-10-15T03:45:12.917Z,17.82
2022-10-15T03:47:40.981Z,17.84
2022-10-15T03:50:09.908Z,17.81
2022-10-15T03:52:39.614Z,17.88
2022-10-15T03:55:09.554Z,17.88
2022-10-15T03:57:38.031Z,17.81
2022-10-15T04:00:09.666Z,17.84
2022-10-15T04:02:40.456Z,17.90
2022-10-15T04:05:19.134Z,17.90
2022-10-15T04:07:54.315Z,17.92
2022-10-15T04:10:23.589Z,17.92
2022-10-15T04:12:51.878Z,17.90
2022-10-15T04:15:20.413Z,17.84
2022-10-15T04:17:55.734Z,17.85
2022-10-15T04:20:25.333Z,17.85
2022-10-15T04:22:54.774Z,17.90
2022-10-15T04:25:22.950Z,17.88
2022-10-15T04:27:51.117Z,17.92
2022-10-15T04:30:20.089Z,17.94
2022-10-15T04:32:55.078Z,17.98
2022-10-15T04:35:23.910Z,17.97
2022-10-15T04:38:03.620Z,17.98
2022-10-15T04:40:58.773Z,17.97
2022-10-15T04:43:30.369Z,18.02
2022-10-15T04:46:05.691Z,17.99
2022-10-15T04:48:37.681Z,17.94
2022-10-15T04:51:14.415Z,17.98
2022-10-15T04:54:02.813Z,17.96
2022-10-15T04:56:32.098Z,17.98
2022-10-15T04:59:00.759Z,17.98
2022-10-15T05:01:32.700Z,17.96
2022-10-15T05:04:07.358Z,17.95
2022-10-15T05:06:35.399Z,17.93
2022-10-15T05:09:17.762Z,17.91
2022-10-15T05:11:50.663Z,17.92
2022-10-15T05:14:18.910Z,17.98
2022-10-15T05:17:03.242Z,18.02
2022-10-15T05:19:36.323Z,18.06
2022-10-15T05:22:04.454Z,18.05
2022-10-15T05:24:35.450Z,17.98
2022-10-15T05:27:14.252Z,17.98
2022-10-15T05:29:43.518Z,18.00
2022-10-15T05:32:11.762Z,18.00
2022-10-15T05:34:41.425Z,18.05
2022-10-15T05:37:15.701Z,18.03
2022-10-15T05:39:45.473Z,18.03
2022-10-15T05:42:13.445Z,17.96
2022-10-15T05:44:48.225Z,17.96
2022-10-15T05:47:16.269Z,17.98
2022-10-15T05:49:44.374Z,17.99
2022-10-15T05:52:17.595Z,17.97
2022-10-15T05:55:09.238Z,17.95
2022-10-15T05:57:37.217Z,17.96
2022-10-15T06:00:07.277Z,17.95
2022-10-15T06:02:41.203Z,17.94
2022-10-15T06:05:09.569Z,17.91
2022-10-15T06:07:38.187Z,17.91
2022-10-15T06:10:08.439Z,17.89
2022-10-15T06:12:36.537Z,17.89
2022-10-15T06:15:04.772Z,17.89
2022-10-15T06:17:32.838Z,17.92
2022-10-15T06:20:00.854Z,17.94
2022-10-15T06:22:31.895Z,17.91
2022-10-15T06:24:59.949Z,17.85
2022-10-15T06:27:30.834Z,17.83
2022-10-15T06:29:58.839Z,17.84
2022-10-15T06:32:26.812Z,17.83
2022-10-15T06:34:54.857Z,17.87
2022-10-15T06:37:23.306Z,17.89
2022-10-15T06:39:52.160Z,17.92
2022-10-15T06:42:20.162Z,17.90
2022-10-15T06:44:50.534Z,17.92
2022-10-15T06:47:18.563Z,17.91
2022-10-15T06:49:48.559Z,17.91
2022-10-15T06:52:16.947Z,17.91
2022-10-15T06:54:45.062Z,17.93
2022-10-15T06:57:15.066Z,17.94
2022-10-15T06:59:43.050Z,17.96
2022-10-15T07:02:14.118Z,17.98
2022-10-15T07:04:42.158Z,18.02
2022-10-15T07:07:10.126Z,18.04
2022-10-15T07:09:38.140Z,18.07
2022-10-15T07:12:06.966Z,18.09
2022-10-15T07:14:38.761Z,18.07
2022-10-15T07:17:09.670Z,18.09
2022-10-15T07:19:39.143Z,18.11
2022-10-15T07:22:07.170Z,18.14
2022-10-15T07:24:35.291Z,18.13
2022-10-15T07:27:08.335Z,18.10
2022-10-15T07:29:46.596Z,18.19
2022-10-15T07:32:14.822Z,18.24
2022-10-15T07:34:44.226Z,18.21
2022-10-15T07:37:12.246Z,18.24
2022-10-15T07:39:41.054Z,18.27
2022-10-15T07:42:09.862Z,18.33
2022-10-15T07:44:37.894Z,18.33
2022-10-15T07:47:11.246Z,18.35
2022-10-15T07:49:39.253Z,18.35
2022-10-15T07:52:09.487Z,18.37
2022-10-15T07:54:37.915Z,18.42
2022-10-15T07:57:07.140Z,18.49
2022-10-15T07:59:35.495Z,18.56
2022-10-15T08:02:03.492Z,18.59
2022-10-15T08:04:31.714Z,18.68
2022-10-15T08:06:59.695Z,18.78
2022-10-15T08:09:29.093Z,18.89
2022-10-15T08:11:57.142Z,19.07
2022-10-15T08:14:25.166Z,19.35
2022-10-15T08:16:53.185Z,19.50
2022-10-15T08:19:21.194Z,19.40
2022-10-15T08:21:50.214Z,19.41
2022-10-15T08:24:18.729Z,19.52
2022-10-15T08:26:48.104Z,19.59
2022-10-15T08:29:16.202Z,19.61
2022-10-15T08:31:44.305Z,19.73
2022-10-15T08:34:12.266Z,19.91
2022-10-15T08:36:40.266Z,19.96
2022-10-15T08:39:09.277Z,19.91
2022-10-15T08:41:41.634Z,19.94
2022-10-15T08:44:19.315Z,19.99
2022-10-15T08:46:51.124Z,20.07
2022-10-15T08:49:31.709Z,20.01
2022-10-15T08:52:08.416Z,20.18
2022-10-15T08:54:37.135Z,20.60
2022-10-15T08:57:17.969Z,21.02
2022-10-15T08:59:55.762Z,21.23
2022-10-15T09:02:27.845Z,21.59
2022-10-15T09:05:02.867Z,21.81
2022-10-15T09:07:42.780Z,22.07
2022-10-15T09:10:17.225Z,22.38
2022-10-15T09:12:52.993Z,22.73
2022-10-15T09:15:27.069Z,23.18
2022-10-15T09:17:56.527Z,23.70
2022-10-15T09:20:31.755Z,23.84
2022-10-15T09:22:59.913Z,24.01
2022-10-15T09:25:34.481Z,24.13
2022-10-15T09:28:11.430Z,24.24
2022-10-15T09:30:45.410Z,24.54
2022-10-15T09:33:19.363Z,24.76
2022-10-15T09:35:52.326Z,25.14
2022-10-15T09:38:30.109Z,25.57
2022-10-15T09:41:16.551Z,25.82
2022-10-15T09:43:47.837Z,25.99
2022-10-15T09:46:17.234Z,25.95
2022-10-15T09:48:50.165Z,25.68
2022-10-15T09:51:25.859Z,25.83
2022-10-15T09:54:02.643Z,26.16
2022-10-15T09:56:36.502Z,26.54
2022-10-15T09:59:07.355Z,26.56
2022-10-15T10:01:39.289Z,26.43
2022-10-15T10:04:18.145Z,26.07
2022-10-15T10:06:49.234Z,25.97
2022-10-15T10:09:20.670Z,25.65
2022-10-15T10:11:51.423Z,25.12
2022-10-15T10:14:27.593Z,24.30
2022-10-15T10:17:17.285Z,23.74
2022-10-15T10:19:47.065Z,23.32
2022-10-15T10:22:19.624Z,22.86
2022-10-15T10:24:48.713Z,22.42
2022-10-15T10:27:24.419Z,22.10
2022-10-15T10:29:59.893Z,21.89
2022-10-15T10:32:32.464Z,21.69
2022-10-15T10:35:02.028Z,21.62
2022-10-15T10:37:30.653Z,21.57
2022-10-15T10:40:01.693Z,21.54
2022-10-15T10:42:35.410Z,21.34
2022-10-15T10:45:18.975Z,21.33
2022-10-15T10:47:48.570Z,21.28
2022-10-15T10:50:29.205Z,21.43
2022-10-15T10:53:00.044Z,21.49
2022-10-15T10:55:38.518Z,21.51
2022-10-15T10:58:06.689Z,21.38
2022-10-15T11:00:40.031Z,21.37
2022-10-15T11:03:21.942Z,21.18
2022-10-15T11:06:07.686Z,21.03
2022-10-15T11:08:46.038Z,21.07
2022-10-15T11:11:20.810Z,21.13
2022-10-15T11:14:02.723Z,21.05
2022-10-15T11:16:37.249Z,20.99
2022-10-15T11:19:47.111Z,20.96
2022-10-15T11:22:48.801Z,20.86
2022-10-15T11:25:24.773Z,20.87
2022-10-15T11:28:02.419Z,20.92
2022-10-15T11:30:43.591Z,20.88
2022-10-15T11:33:29.273Z,20.85
2022-10-15T11:36:11.753Z,20.84
2022-10-15T11:38:46.761Z,20.89
2022-10-15T11:41:35.238Z,20.88
2022-10-15T11:44:16.850Z,20.93
2022-10-15T11:46:52.094Z,21.14
2022-10-15T11:49:29.560Z,21.22
2022-10-15T11:52:14.712Z,21.33
2022-10-15T11:54:46.907Z,21.49
2022-10-15T11:57:18.034Z,21.59
2022-10-15T11:59:53.321Z,21.76
2022-10-15T12:02:30.267Z,22.01
2022-10-15T12:05:01.637Z,22.27
2022-10-15T12:07:38.422Z,22.39
2022-10-15T12:10:22.569Z,22.24
2022-10-15T12:12:57.821Z,22.24
2022-10-15T12:15:32.170Z,22.29
2022-10-15T12:18:05.670Z,22.28
2022-10-15T12:20:34.171Z,22.21
2022-10-15T12:23:04.310Z,22.20
2022-10-15T12:25:46.603Z,22.26
2022-10-15T12:28:18.161Z,22.24
2022-10-15T12:30:56.709Z,22.34
2022-10-15T12:33:30.693Z,22.43
2022-10-15T12:36:00.894Z,22.37
2022-10-15T12:38:34.545Z,22.32
2022-10-15T12:41:06.270Z,22.33
2022-10-15T12:43:36.932Z,22.39
2022-10-15T12:46:07.203Z,22.39
2022-10-15T12:48:43.313Z,22.34
2022-10-15T12:51:35.341Z,22.35
2022-10-15T12:54:49.919Z,22.43
2022-10-15T12:58:01.475Z,22.47
2022-10-15T13:00:38.691Z,22.49
2022-10-15T13:03:33.714Z,22.47
2022-10-15T13:06:26.893Z,22.43
2022-10-15T13:09:06.835Z,22.44
2022-10-15T13:11:38.252Z,22.42
2022-10-15T13:14:26.199Z,22.47
2022-10-15T13:16:57.729Z,22.47
2022-10-15T13:19:29.282Z,22.46
2022-10-15T13:22:00.862Z,22.48
2022-10-15T13:24:41.805Z,22.51
2022-10-15T13:27:23.933Z,22.53
2022-10-15T13:29:58.697Z,22.54
2022-10-15T13:32:28.674Z,22.55
2022-10-15T13:34:57.612Z,22.52
2022-10-15T13:37:32.404Z,22.43
2022-10-15T13:40:04.653Z,22.23
2022-10-15T13:42:35.855Z,22.07
2022-10-15T13:45:16.560Z,21.95
2022-10-15T13:47:49.173Z,21.90
2022-10-15T13:50:23.877Z,21.89
2022-10-15T13:52:56.626Z,21.85
2022-10-15T13:55:28.440Z,21.88
2022-10-15T13:58:01.489Z,21.91
2022-10-15T14:00:34.454Z,21.84
2022-10-15T14:03:10.506Z,21.74
2022-10-15T14:05:38.517Z,21.69
2022-10-15T14:08:07.058Z,21.73
2022-10-15T14:10:35.069Z,21.77
2022-10-15T14:13:03.094Z,21.77
2022-10-15T14:15:47.966Z,21.67
2022-10-15T14:18:19.330Z,21.57
2022-10-15T14:20:48.924Z,21.52
2022-10-15T14:23:21.610Z,21.52
2022-10-15T14:25:55.449Z,21.50
2022-10-15T14:28:25.273Z,21.48
2022-10-15T14:30:55.557Z,21.44
2022-10-15T14:33:45.346Z,21.38
2022-10-15T14:36:23.019Z,21.32
2022-10-15T14:38:52.257Z,21.24
2022-10-15T14:41:27.241Z,21.23
2022-10-15T14:44:03.677Z,21.24
2022-10-15T14:46:39.304Z,21.29
2022-10-15T14:49:28.077Z,21.23
2022-10-15T14:51:58.921Z,21.17
2022-10-15T14:54:33.038Z,21.10
2022-10-15T14:57:01.941Z,21.10
2022-10-15T14:59:34.395Z,21.13
2022-10-15T15:02:06.190Z,21.13
2022-10-15T15:04:42.613Z,21.13
2022-10-15T15:07:16.704Z,21.15
2022-10-15T15:09:47.806Z,21.17
2022-10-15T15:12:21.755Z,21.20
2022-10-15T15:14:52.697Z,21.22
2022-10-15T15:17:24.101Z,21.25
2022-10-15T15:19:54.581Z,21.24
2022-10-15T15:22:29.106Z,21.27
2022-10-15T15:24:59.036Z,21.31
2022-10-15T15:27:28.745Z,21.31
2022-10-15T15:29:57.597Z,21.33
2022-10-15T15:32:27.435Z,21.36
2022-10-15T15:34:57.119Z,21.36
2022-10-15T15:37:26.145Z,21.35
2022-10-15T15:39:54.175Z,21.38
2022-10-15T15:42:24.432Z,21.37
2022-10-15T15:44:52.651Z,21.40
2022-10-15T15:47:20.765Z,21.40
2022-10-15T15:49:50.090Z,21.43
2022-10-15T15:52:19.028Z,21.43
2022-10-15T15:54:47.470Z,21.44
2022-10-15T15:57:15.606Z,21.42
2022-10-15T15:59:43.650Z,21.39
2022-10-15T16:02:13.075Z,21.42
2022-10-15T16:04:41.052Z,21.37
2022-10-15T16:07:13.297Z,21.36
2022-10-15T16:09:41.778Z,21.34
2022-10-15T16:12:09.837Z,21.32
2022-10-15T16:14:37.893Z,21.27
2022-10-15T16:17:06.680Z,21.25
2022-10-15T16:19:34.826Z,21.24
2022-10-15T16:22:02.893Z,21.29
2022-10-15T16:24:32.317Z,21.33
2022-10-15T16:27:01.306Z,21.36
2022-10-15T16:29:29.277Z,21.36
2022-10-15T16:31:57.470Z,21.36
2022-10-15T16:34:26.011Z,21.35
2022-10-15T16:36:54.065Z,21.29
2022-10-15T16:39:22.021Z,21.27
2022-10-15T16:41:51.413Z,21.24
2022-10-15T16:44:19.396Z,21.20
2022-10-15T16:47:31.832Z,21.16
2022-10-15T16:51:02.497Z,21.10
2022-10-15T16:54:15.539Z,21.06
2022-10-15T16:56:57.160Z,20.99
2022-10-15T16:59:33.230Z,20.98
2022-10-15T17:02:40.233Z,20.89
2022-10-15T17:13:36.595Z,20.68
2022-10-15T17:24:46.327Z,20.53
2022-10-15T17:28:34.099Z,20.51
2022-10-15T17:31:24.638Z,20.45
2022-10-15T17:37:26.196Z,20.42
2022-10-15T17:39:58.164Z,20.41
2022-10-15T17:42:27.015Z,20.41
2022-10-15T17:44:55.656Z,20.36
2022-10-15T17:47:24.345Z,20.35
2022-10-15T17:49:54.197Z,20.34
2022-10-15T17:52:22.722Z,20.30
2022-10-15T17:54:51.715Z,20.29
2022-10-15T17:57:20.066Z,20.26
2022-10-15T17:59:51.088Z,20.30
2022-10-15T18:02:19.756Z,20.27
2022-10-15T18:04:49.613Z,20.27
2022-10-15T18:07:19.969Z,20.31
2022-10-15T18:09:48.317Z,20.31
2022-10-15T18:12:16.602Z,20.29
2022-10-15T18:14:44.920Z,20.29
2022-10-15T18:17:15.296Z,20.29
2022-10-15T18:19:43.703Z,20.26
2022-10-15T18:22:12.686Z,20.19
2022-10-15T18:24:42.429Z,20.21
2022-10-15T18:27:10.722Z,20.13
2022-10-15T18:29:39.931Z,20.07
2022-10-15T18:32:08.840Z,20.04
2022-10-15T18:34:37.114Z,20.00
2022-10-15T18:37:05.435Z,19.92
2022-10-15T18:39:33.910Z,19.86
2022-10-15T18:42:04.343Z,19.84
2022-10-15T18:44:34.282Z,19.82
2022-10-15T18:47:02.585Z,19.77
2022-10-15T18:49:32.580Z,19.73
2022-10-15T18:52:06.526Z,19.67
2022-10-15T18:54:44.272Z,19.66
2022-10-15T18:57:13.926Z,19.66
2022-10-15T18:59:42.298Z,19.71
2022-10-15T19:02:10.680Z,19.58
2022-10-15T19:04:39.017Z,19.50
2022-10-15T19:07:07.374Z,19.47
2022-10-15T19:09:36.000Z,19.48
2022-10-15T19:12:04.661Z,19.48
2022-10-15T19:14:34.298Z,19.46
2022-10-15T19:17:03.384Z,19.43
2022-10-15T19:19:31.737Z,19.45
2022-10-15T19:22:00.631Z,19.40
2022-10-15T19:24:29.044Z,19.40
2022-10-15T19:26:57.595Z,19.41
2022-10-15T19:29:25.927Z,19.38
2022-10-15T19:31:56.952Z,19.32
2022-10-15T19:34:25.301Z,19.42
2022-10-15T19:36:53.664Z,19.45
2022-10-15T19:39:24.668Z,19.46
2022-10-15T19:41:53.708Z,19.41
2022-10-15T19:44:25.771Z,19.47
2022-10-15T19:46:56.665Z,19.52
2022-10-15T19:49:25.767Z,19.52
2022-10-15T19:51:54.848Z,19.53
2022-10-15T19:56:51.574Z,19.28
2022-10-15T19:59:21.907Z,19.22
2022-10-15T20:01:50.287Z,19.24
2022-10-15T20:04:22.296Z,19.40
2022-10-15T20:06:52.846Z,19.31
2022-10-15T20:09:21.257Z,19.36
2022-10-15T20:11:49.625Z,19.29
2022-10-15T20:14:17.940Z,19.22
2022-10-15T20:16:46.128Z,19.22
2022-10-15T20:19:14.882Z,19.15
2022-10-15T20:21:44.605Z,19.12
2022-10-15T20:24:13.039Z,19.11
2022-10-15T20:26:41.369Z,19.11
2022-10-15T20:29:09.704Z,19.10
2022-10-15T20:31:38.095Z,19.16
2022-10-15T20:34:06.278Z,19.13
2022-10-15T20:36:34.641Z,19.11
2022-10-15T20:39:04.368Z,19.17
2022-10-15T20:41:32.723Z,19.16
2022-10-15T20:44:00.946Z,19.20
2022-10-15T20:46:34.110Z,19.21
2022-10-15T20:49:08.806Z,19.24
2022-10-15T20:51:38.818Z,19.21
2022-10-15T20:54:08.896Z,19.24
2022-10-15T20:56:37.450Z,19.20
2022-10-15T20:59:06.381Z,19.08
2022-10-15T21:01:35.785Z,19.02
2022-10-15T21:04:04.789Z,19.01
2022-10-15T21:06:33.879Z,19.02
2022-10-15T21:09:02.693Z,19.01
2022-10-15T21:11:32.401Z,19.02
2022-10-15T21:14:01.551Z,19.12
2022-10-15T21:16:29.878Z,19.03
2022-10-15T21:18:58.177Z,19.02
2022-10-15T21:21:26.796Z,19.00
2022-10-15T21:23:55.405Z,19.01
2022-10-15T21:26:24.859Z,19.01
2022-10-15T21:28:56.976Z,19.01
2022-10-15T21:31:26.174Z,18.95
2022-10-15T21:33:55.905Z,18.95
2022-10-15T21:36:27.169Z,18.88
2022-10-15T21:38:57.159Z,18.92
2022-10-15T21:41:26.803Z,18.92
2022-10-15T21:43:56.530Z,18.93
2022-10-15T21:46:25.288Z,18.91
2022-10-15T21:48:54.650Z,18.92
2022-10-15T21:51:25.001Z,18.84
2022-10-15T21:53:53.859Z,18.74
2022-10-15T21:56:22.494Z,18.93
2022-10-15T21:58:52.123Z,18.92
2022-10-15T22:01:24.014Z,18.97
2022-10-15T22:03:53.871Z,18.97
2022-10-15T22:06:22.609Z,18.86
2022-10-15T22:08:51.513Z,18.99
2022-10-15T22:11:22.488Z,18.91
2022-10-15T22:13:52.803Z,18.93
2022-10-15T22:16:24.251Z,18.95
2022-10-15T22:18:53.136Z,18.97
2022-10-15T22:21:23.804Z,18.91
2022-10-15T22:23:53.724Z,18.91
2022-10-15T22:26:24.730Z,18.88
2022-10-15T22:28:54.238Z,18.87
2022-10-15T22:31:24.647Z,18.85
2022-10-15T22:33:53.765Z,18.86
2022-10-15T22:36:24.019Z,18.78
2022-10-15T22:41:23.593Z,18.80
2022-10-15T22:43:51.867Z,18.84
2022-10-15T22:46:19.967Z,18.82
2022-10-15T22:48:50.007Z,18.80
2022-10-15T22:51:18.239Z,18.78
2022-10-15T22:53:46.699Z,18.84
2022-10-15T22:56:17.126Z,18.91
2022-10-15T22:58:45.759Z,18.93
2022-10-15T23:01:16.700Z,18.95
2022-10-15T23:03:46.260Z,18.95
2022-10-15T23:06:16.549Z,18.95
2022-10-15T23:08:47.159Z,18.94
2022-10-15T23:11:17.694Z,18.98
2022-10-15T23:13:47.256Z,18.94
2022-10-15T23:16:16.923Z,18.92
2022-10-15T23:18:47.021Z,18.94
2022-10-15T23:21:17.921Z,18.89
2022-10-15T23:23:46.985Z,18.84
2022-10-15T23:26:16.734Z,18.86
2022-10-15T23:28:45.499Z,18.76
2022-10-15T23:31:16.996Z,18.80
2022-10-15T23:33:45.166Z,18.85
2022-10-15T23:36:13.360Z,18.84
2022-10-15T23:38:42.933Z,18.92
2022-10-15T23:41:11.518Z,18.89
2022-10-15T23:43:39.634Z,18.87
2022-10-15T23:46:07.676Z,18.91
2022-10-15T23:48:36.246Z,18.88
2022-10-15T23:51:04.502Z,18.89
2022-10-15T23:53:33.606Z,18.89
2022-10-15T23:56:03.950Z,18.84
2022-10-15T23:58:33.101Z,18.86
